Time;durP1;ratioP1;P1;durP2;ratioP2;P2;SDS_P1;SDS_P2;PMS_P1;PMS_P2;Temp;Humidity;BMP_temperature;BMP_pressure;BME280_temperature;BME280_humidity;BME280_pressure;Samples;Min_cycle;Max_cycle;Signal;HPM_P1;HPM_P2
2024/04/07 00:02:26;;;;;;;3.15;1.10;;;20.70;95.00;;;;;;5004830;28;20033;-65
2024/04/07 00:04:52;;;;;;;3.05;1.20;;;20.70;94.90;;;;;;5008812;28;20072;-65
2024/04/07 00:07:18;;;;;;;3.90;1.35;;;20.70;94.70;;;;;;5006522;28;20524;-65
2024/04/07 00:09:46;;;;;;;3.83;1.25;;;20.70;94.70;;;;;;5004432;28;20033;-65
2024/04/07 00:12:12;;;;;;;5.63;1.30;;;20.70;94.50;;;;;;5006803;28;20060;-65
2024/04/07 00:14:38;;;;;;;3.58;1.20;;;20.70;94.40;;;;;;5000452;28;20034;-66
2024/04/07 00:17:05;;;;;;;4.47;1.50;;;20.70;94.20;;;;;;5007301;28;20072;-65
2024/04/07 00:19:32;;;;;;;5.55;1.40;;;20.70;94.10;;;;;;5006075;28;20073;-65
2024/04/07 00:21:58;;;;;;;5.80;1.40;;;20.70;93.90;;;;;;5001809;28;20018;-65
2024/04/07 00:24:23;;;;;;;4.65;1.17;;;20.70;93.80;;;;;;5002699;28;20522;-65
2024/04/07 00:26:50;;;;;;;4.53;1.30;;;20.70;93.80;;;;;;5004515;28;20026;-65
2024/04/07 00:29:15;;;;;;;3.70;1.25;;;20.70;93.70;;;;;;5002362;28;20050;-66
2024/04/07 00:31:41;;;;;;;3.72;1.23;;;20.70;93.60;;;;;;5007439;28;20065;-66
2024/04/07 00:34:07;;;;;;;5.45;1.30;;;20.70;93.30;;;;;;5003466;28;20849;-65
2024/04/07 00:36:33;;;;;;;3.83;1.10;;;20.70;93.20;;;;;;5006116;28;20037;-65
2024/04/07 00:38:59;;;;;;;5.25;1.30;;;20.70;93.10;;;;;;5006469;28;20504;-65
2024/04/07 00:41:27;;;;;;;4.35;1.30;;;20.70;93.00;;;;;;5005630;28;20042;-65
2024/04/07 00:43:52;;;;;;;3.15;1.05;;;20.70;92.90;;;;;;5006532;28;20393;-66
2024/04/07 00:46:18;;;;;;;3.97;1.38;;;20.70;92.90;;;;;;5000181;28;20036;-66
2024/04/07 00:48:44;;;;;;;4.15;1.40;;;20.70;93.00;;;;;;5006340;28;20025;-66
2024/04/07 00:51:10;;;;;;;5.07;1.30;;;20.70;93.10;;;;;;5003175;28;20026;-66
2024/04/07 00:53:35;;;;;;;3.10;1.20;;;20.70;93.10;;;;;;5004513;28;20032;-65
2024/04/07 00:56:01;;;;;;;4.63;1.20;;;20.70;93.20;;;;;;5008106;28;20038;-66
2024/04/07 00:58:27;;;;;;;4.38;1.30;;;20.70;93.10;;;;;;5003641;28;20598;-66
2024/04/07 01:00:52;;;;;;;6.65;1.27;;;20.70;93.10;;;;;;5007318;28;20096;-66
2024/04/07 01:03:18;;;;;;;3.58;1.13;;;20.70;93.10;;;;;;5006056;28;20029;-66
2024/04/07 01:05:48;;;;;;;4.20;1.20;;;20.70;92.90;;;;;;4998116;28;20029;-65
2024/04/07 01:08:15;;;;;;;3.80;1.20;;;20.70;92.80;;;;;;5001334;28;20141;-66
2024/04/07 01:10:42;;;;;;;3.72;1.20;;;20.70;92.90;;;;;;5004738;28;20034;-66
2024/04/07 01:13:10;;;;;;;4.93;1.10;;;20.70;92.80;;;;;;4998256;28;20038;-65
2024/04/07 01:15:36;;;;;;;5.03;1.27;;;20.70;92.60;;;;;;5002045;28;20026;-66
2024/04/07 01:18:03;;;;;;;5.53;1.20;;;20.70;92.40;;;;;;5000282;28;20023;-65
2024/04/07 01:20:29;;;;;;;4.95;1.33;;;20.70;92.40;;;;;;5004349;28;20034;-66
2024/04/07 01:22:55;;;;;;;3.35;1.10;;;20.70;92.20;;;;;;5006184;28;20029;-65
2024/04/07 01:25:22;;;;;;;4.80;1.38;;;20.70;92.10;;;;;;5005385;28;20030;-66
2024/04/07 01:27:55;;;;;;;3.95;1.35;;;20.70;92.10;;;;;;5004417;28;20018;-66
2024/04/07 01:30:22;;;;;;;3.88;1.17;;;20.70;92.00;;;;;;5005798;28;20022;-66
2024/04/07 01:32:48;;;;;;;3.53;1.35;;;20.60;91.90;;;;;;5002335;28;20046;-66
2024/04/07 01:35:14;;;;;;;4.38;1.40;;;20.60;91.90;;;;;;5001497;28;20547;-65
2024/04/07 01:37:39;;;;;;;4.75;1.15;;;20.70;91.80;;;;;;5002496;28;20041;-65
2024/04/07 01:40:08;;;;;;;3.92;1.20;;;20.70;91.90;;;;;;5002302;28;20441;-65
2024/04/07 01:42:35;;;;;;;4.20;1.20;;;20.60;91.90;;;;;;5001547;28;20516;-65
2024/04/07 01:45:01;;;;;;;6.28;1.38;;;20.60;91.60;;;;;;4999289;28;20031;-65
2024/04/07 01:47:26;;;;;;;3.35;1.10;;;20.60;91.40;;;;;;5004483;28;20053;-65
2024/04/07 01:49:55;;;;;;;4.13;1.30;;;20.70;91.40;;;;;;4999208;28;20649;-65
2024/04/07 01:52:21;;;;;;;3.88;1.27;;;20.70;91.40;;;;;;4999218;28;20437;-66
2024/04/07 01:54:46;;;;;;;4.55;1.10;;;20.70;91.30;;;;;;5005874;28;20065;-66
2024/04/07 01:57:12;;;;;;;4.28;1.38;;;20.60;91.20;;;;;;4998709;28;20084;-66
2024/04/07 01:59:37;;;;;;;3.58;1.20;;;20.60;91.10;;;;;;5005881;28;20022;-66
2024/04/07 02:02:03;;;;;;;2.80;1.08;;;20.70;91.20;;;;;;5000391;28;20030;-66
2024/04/07 02:04:29;;;;;;;4.80;1.20;;;20.60;91.20;;;;;;5008759;28;20037;-66
2024/04/07 02:06:57;;;;;;;4.20;1.40;;;20.60;91.10;;;;;;4998946;28;20026;-66
2024/04/07 02:09:23;;;;;;;5.97;1.23;;;20.60;91.00;;;;;;5004881;28;20030;-66
2024/04/07 02:11:49;;;;;;;3.05;1.30;;;20.60;91.10;;;;;;4997532;28;20057;-66
2024/04/07 02:14:14;;;;;;;3.10;1.00;;;20.60;91.20;;;;;;5003467;28;20382;-66
2024/04/07 02:16:41;;;;;;;4.05;1.15;;;20.60;91.20;;;;;;5005169;28;20042;-66
2024/04/07 02:19:07;;;;;;;3.95;1.15;;;20.60;91.20;;;;;;5003372;28;20022;-66
2024/04/07 02:21:35;;;;;;;5.93;1.35;;;20.60;91.30;;;;;;4999159;28;20381;-66
2024/04/07 02:24:01;;;;;;;4.13;1.30;;;20.60;91.20;;;;;;4998649;28;20104;-66
2024/04/07 02:26:26;;;;;;;4.15;1.17;;;20.60;91.40;;;;;;5001058;28;20121;-66
2024/04/07 02:28:52;;;;;;;2.58;1.10;;;20.60;91.60;;;;;;5006220;28;20025;-66
2024/04/07 02:31:18;;;;;;;5.25;1.33;;;20.60;91.70;;;;;;4999202;28;20022;-66
2024/04/07 02:33:46;;;;;;;5.03;1.27;;;20.60;91.80;;;;;;5004990;28;20042;-66
2024/04/07 02:36:15;;;;;;;3.65;1.10;;;20.60;91.90;;;;;;5002140;28;20079;-66
2024/04/07 02:38:41;;;;;;;4.77;1.20;;;20.60;92.10;;;;;;4998794;28;20083;-67
2024/04/07 02:41:07;;;;;;;3.95;1.30;;;20.60;92.10;;;;;;4995838;28;20031;-66
2024/04/07 02:43:33;;;;;;;3.85;1.10;;;20.60;92.10;;;;;;5001438;28;20037;-66
2024/04/07 02:48:43;;;;;;;4.32;1.30;;;20.60;92.20;;;;;;5001377;28;20088;-66
2024/04/07 02:51:09;;;;;;;4.57;1.20;;;20.60;92.20;;;;;;5000564;28;20401;-66
2024/04/07 02:53:34;;;;;;;4.68;1.13;;;20.60;92.20;;;;;;5007139;28;20033;-66
2024/04/07 02:56:00;;;;;;;3.88;1.23;;;20.60;92.30;;;;;;4999291;28;20061;-66
2024/04/07 02:58:25;;;;;;;4.40;1.30;;;20.60;92.30;;;;;;5002585;28;20026;-66
2024/04/07 03:01:04;;;;;;;3.65;1.10;;;20.60;92.50;;;;;;5002306;28;20030;-66
2024/04/07 03:03:30;;;;;;;4.68;1.05;;;20.60;92.50;;;;;;5000271;28;20104;-65
2024/04/07 03:05:56;;;;;;;7.32;1.40;;;20.60;92.40;;;;;;5002490;28;20022;-65
2024/04/07 03:08:22;;;;;;;4.68;1.30;;;20.60;92.40;;;;;;4997103;28;20112;-66
2024/04/07 03:11:01;;;;;;;3.70;1.20;;;20.60;92.50;;;;;;4998645;28;20062;-66
2024/04/07 03:13:27;;;;;;;7.43;2.05;;;20.60;92.50;;;;;;4998983;28;20374;-65
2024/04/07 03:15:54;;;;;;;4.80;1.13;;;20.60;92.50;;;;;;5002170;28;20030;-65
2024/04/07 03:18:20;;;;;;;4.30;1.40;;;20.60;92.50;;;;;;4996572;28;20034;-65
2024/04/07 03:20:45;;;;;;;3.63;1.10;;;20.60;92.70;;;;;;4997138;28;21008;-65
2024/04/07 03:23:11;;;;;;;5.72;1.33;;;20.60;92.80;;;;;;5000098;28;20485;-65
2024/04/07 03:25:37;;;;;;;3.67;1.10;;;20.60;92.90;;;;;;5000622;28;20115;-65
2024/04/07 03:28:03;;;;;;;3.58;1.20;;;20.60;93.10;;;;;;4999008;28;20034;-65
2024/04/07 03:30:29;;;;;;;4.78;1.02;;;20.60;93.30;;;;;;5000620;28;20037;-65
2024/04/07 03:32:57;;;;;;;3.53;1.10;;;20.60;93.40;;;;;;4998768;28;20383;-65
2024/04/07 03:35:23;;;;;;;5.43;1.20;;;20.60;93.50;;;;;;4999669;28;20038;-65
2024/04/07 03:37:50;;;;;;;4.18;1.10;;;20.60;93.70;;;;;;5001437;28;20032;-65
2024/04/07 03:40:16;;;;;;;3.97;1.40;;;20.60;93.70;;;;;;4997145;28;20398;-65
2024/04/07 03:42:42;;;;;;;5.53;1.30;;;20.60;93.70;;;;;;4999456;28;20018;-65
2024/04/07 03:45:09;;;;;;;3.17;1.15;;;20.60;93.70;;;;;;5003282;28;20449;-65
2024/04/07 03:47:36;;;;;;;3.90;1.13;;;20.60;93.80;;;;;;5001815;28;20034;-66
2024/04/07 03:50:02;;;;;;;2.90;1.15;;;20.60;93.90;;;;;;4998802;28;20035;-65
2024/04/07 03:52:28;;;;;;;6.10;1.60;;;20.60;94.30;;;;;;4999330;28;20033;-65
2024/04/07 03:54:53;;;;;;;4.63;1.30;;;20.60;94.20;;;;;;4998135;28;20026;-65
2024/04/07 03:57:19;;;;;;;4.68;1.10;;;20.60;94.30;;;;;;5001436;28;20106;-65
2024/04/07 03:59:44;;;;;;;4.75;1.30;;;20.60;94.40;;;;;;4999095;28;20589;-65
2024/04/07 04:02:19;;;;;;;4.00;1.20;;;20.60;94.50;;;;;;5000999;28;20069;-65
2024/04/07 04:04:45;;;;;;;4.13;1.40;;;20.60;94.60;;;;;;5001900;28;20053;-65
2024/04/07 04:07:10;;;;;;;4.70;1.30;;;20.60;94.70;;;;;;4997891;28;20069;-65
2024/04/07 04:09:38;;;;;;;4.13;1.40;;;20.60;94.80;;;;;;4998607;28;20089;-65
2024/04/07 04:12:04;;;;;;;8.68;1.40;;;20.60;94.90;;;;;;4999675;28;20032;-65
2024/04/07 04:14:30;;;;;;;8.32;2.30;;;20.60;94.90;;;;;;5000615;28;20366;-65
2024/04/07 04:16:56;;;;;;;5.15;1.40;;;20.60;95.00;;;;;;4998543;28;20076;-65
2024/04/07 04:19:21;;;;;;;5.07;1.42;;;20.60;95.00;;;;;;4998003;28;20041;-65
2024/04/07 04:21:47;;;;;;;4.53;1.42;;;20.60;95.10;;;;;;5000429;28;20018;-65
2024/04/07 04:24:13;;;;;;;4.63;1.40;;;20.60;95.10;;;;;;4998528;28;20031;-65
2024/04/07 04:26:39;;;;;;;5.40;1.40;;;20.60;95.30;;;;;;5001051;28;20034;-65
2024/04/07 04:29:04;;;;;;;3.78;1.15;;;20.60;95.40;;;;;;4999524;28;20021;-65
2024/04/07 04:31:32;;;;;;;5.97;1.50;;;20.60;95.40;;;;;;4999284;28;20021;-65
2024/04/07 04:33:57;;;;;;;4.95;1.40;;;20.60;95.40;;;;;;5000703;28;20037;-65
2024/04/07 04:36:23;;;;;;;4.50;1.30;;;20.60;95.50;;;;;;5002598;28;20735;-66
2024/04/07 04:38:51;;;;;;;4.65;1.50;;;20.60;95.50;;;;;;5001900;28;20137;-65
2024/04/07 04:41:16;;;;;;;4.40;1.20;;;20.60;95.60;;;;;;4997905;28;20022;-65
2024/04/07 04:43:42;;;;;;;3.38;1.10;;;20.60;95.70;;;;;;5001757;28;20377;-65
2024/04/07 04:46:09;;;;;;;4.15;1.35;;;20.60;95.80;;;;;;5002382;28;20339;-65
2024/04/07 04:48:36;;;;;;;4.28;1.20;;;20.60;95.80;;;;;;5007680;28;20385;-65
2024/04/07 04:51:03;;;;;;;4.00;1.40;;;20.60;95.90;;;;;;5001795;28;20033;-65
2024/04/07 04:53:29;;;;;;;5.30;1.50;;;20.60;96.00;;;;;;5002906;28;20046;-65
2024/04/07 04:56:02;;;;;;;6.32;1.40;;;20.60;96.10;;;;;;5003972;28;20108;-65
2024/04/07 04:58:32;;;;;;;3.33;1.13;;;20.60;96.20;;;;;;5002923;28;20033;-65
2024/04/07 05:00:58;;;;;;;4.25;1.20;;;20.60;96.30;;;;;;5003559;28;20026;-65
2024/04/07 05:03:25;;;;;;;6.00;1.60;;;20.60;96.30;;;;;;5002868;28;20038;-65
2024/04/07 05:05:51;;;;;;;5.55;1.30;;;20.60;96.30;;;;;;5004177;28;20026;-65
2024/04/07 05:08:19;;;;;;;4.20;1.30;;;20.60;96.30;;;;;;5001188;28;20038;-65
2024/04/07 05:10:45;;;;;;;5.53;1.58;;;20.60;96.40;;;;;;5001092;28;20061;-65
2024/04/07 05:13:11;;;;;;;3.75;1.27;;;20.60;96.40;;;;;;5004148;28;20436;-65
2024/04/07 05:15:36;;;;;;;4.07;1.40;;;20.60;96.40;;;;;;5003470;28;20045;-66
2024/04/07 05:18:02;;;;;;;3.92;1.30;;;20.60;96.40;;;;;;5002461;28;20643;-65
2024/04/07 05:20:28;;;;;;;4.88;1.40;;;20.60;96.40;;;;;;5000608;28;20073;-65
2024/04/07 05:22:54;;;;;;;4.35;1.40;;;20.60;96.40;;;;;;5008884;28;20026;-65
2024/04/07 05:25:19;;;;;;;6.68;1.50;;;20.60;96.40;;;;;;5003116;28;20030;-65
2024/04/07 05:27:45;;;;;;;4.55;1.40;;;20.50;96.40;;;;;;5000701;28;20034;-65
2024/04/07 05:30:13;;;;;;;3.45;1.20;;;20.50;96.40;;;;;;5003194;28;20523;-65
2024/04/07 05:32:39;;;;;;;3.70;1.38;;;20.60;96.60;;;;;;5000757;28;20085;-65
2024/04/07 05:35:05;;;;;;;4.50;1.40;;;20.50;96.60;;;;;;5002856;28;20072;-65
2024/04/07 05:37:31;;;;;;;4.80;1.42;;;20.60;96.70;;;;;;5004001;28;20021;-65
2024/04/07 05:39:57;;;;;;;3.58;1.20;;;20.50;96.80;;;;;;5000814;28;20027;-65
2024/04/07 05:42:26;;;;;;;4.43;1.50;;;20.50;96.80;;;;;;5000369;28;20477;-64
2024/04/07 05:44:52;;;;;;;3.92;1.20;;;20.60;96.90;;;;;;5004041;28;20049;-64
2024/04/07 05:47:18;;;;;;;5.28;1.50;;;20.50;96.90;;;;;;5005331;28;20030;-64
2024/04/07 05:49:44;;;;;;;4.25;1.25;;;20.50;97.00;;;;;;5001886;28;20100;-64
2024/04/07 05:52:09;;;;;;;3.10;1.20;;;20.50;97.00;;;;;;4998085;28;20041;-64
2024/04/07 05:54:35;;;;;;;4.75;1.38;;;20.50;97.00;;;;;;5003143;28;20477;-64
2024/04/07 05:57:01;;;;;;;4.85;1.35;;;20.50;97.10;;;;;;5003250;28;20120;-64
2024/04/07 05:59:26;;;;;;;7.30;1.50;;;20.60;97.10;;;;;;5003574;28;20030;-64
2024/04/07 06:01:53;;;;;;;5.82;1.20;;;20.60;97.10;;;;;;5001670;28;20474;-64
2024/04/07 06:04:22;;;;;;;4.45;1.50;;;20.50;97.20;;;;;;5000434;28;20535;-65
2024/04/07 06:06:48;;;;;;;5.38;1.45;;;20.50;97.20;;;;;;4998602;28;20023;-65
2024/04/07 06:09:16;;;;;;;4.05;1.30;;;20.50;97.20;;;;;;4998788;28;20061;-65
2024/04/07 06:11:42;;;;;;;4.30;1.35;;;20.50;97.10;;;;;;4996968;28;20041;-65
2024/04/07 06:14:08;;;;;;;5.28;1.33;;;20.50;97.20;;;;;;5000813;28;20026;-64
2024/04/07 06:16:34;;;;;;;4.05;1.30;;;20.50;97.20;;;;;;4997868;28;20049;-65
2024/04/07 06:19:00;;;;;;;4.60;1.38;;;20.50;97.30;;;;;;5005654;28;20092;-64
2024/04/07 06:21:25;;;;;;;4.85;1.50;;;20.50;97.40;;;;;;4997627;28;20027;-64
2024/04/07 06:23:53;;;;;;;4.15;1.33;;;20.50;97.60;;;;;;4999594;28;20153;-64
2024/04/07 06:26:19;;;;;;;6.80;1.60;;;20.50;97.80;;;;;;5001882;28;20111;-64
2024/04/07 06:28:45;;;;;;;4.97;1.45;;;20.60;97.90;;;;;;5004391;28;20100;-64
2024/04/07 06:31:11;;;;;;;4.43;1.25;;;20.50;97.90;;;;;;4999449;28;20482;-65
2024/04/07 06:33:37;;;;;;;5.32;1.52;;;20.60;97.90;;;;;;4999844;28;20061;-66
2024/04/07 06:36:03;;;;;;;4.13;1.40;;;20.50;97.90;;;;;;4999048;28;20030;-66
2024/04/07 06:38:28;;;;;;;5.82;1.70;;;20.50;98.00;;;;;;5000505;28;20512;-66
2024/04/07 06:40:54;;;;;;;5.03;1.63;;;20.50;98.00;;;;;;5002234;28;20026;-66
2024/04/07 06:43:20;;;;;;;6.32;1.50;;;20.50;98.00;;;;;;4998716;28;20034;-66
2024/04/07 06:45:45;;;;;;;6.85;1.58;;;20.60;98.00;;;;;;5006766;28;20353;-66
2024/04/07 06:48:11;;;;;;;7.00;1.60;;;20.60;98.00;;;;;;4997485;28;20042;-66
2024/04/07 06:50:37;;;;;;;7.53;2.17;;;20.60;97.90;;;;;;4997725;28;20092;-66
2024/04/07 06:53:03;;;;;;;6.20;1.65;;;20.60;97.80;;;;;;5000008;28;20046;-66
2024/04/07 06:55:29;;;;;;;5.72;1.50;;;20.60;97.80;;;;;;4995674;28;20405;-66
2024/04/07 06:57:55;;;;;;;4.75;1.70;;;20.60;97.80;;;;;;5003237;28;20014;-66
2024/04/07 07:00:20;;;;;;;6.47;1.70;;;20.60;97.70;;;;;;4999810;28;20042;-66
2024/04/07 07:02:46;;;;;;;7.80;1.67;;;20.60;97.70;;;;;;4998694;28;20014;-66
2024/04/07 07:05:14;;;;;;;5.68;1.40;;;20.60;97.70;;;;;;4999189;28;20030;-66
2024/04/07 07:07:42;;;;;;;4.28;1.40;;;20.60;97.60;;;;;;5000382;28;20034;-64
2024/04/07 07:10:08;;;;;;;6.15;1.30;;;20.70;97.60;;;;;;5014058;28;20080;-62
2024/04/07 07:12:34;;;;;;;5.53;1.52;;;20.70;97.90;;;;;;5002558;28;20022;-65
2024/04/07 07:15:00;;;;;;;4.82;1.50;;;20.70;97.90;;;;;;5005632;28;20492;-65
2024/04/07 07:17:25;;;;;;;5.72;1.50;;;20.70;98.00;;;;;;4999634;28;20398;-58
2024/04/07 07:19:51;;;;;;;5.30;1.40;;;20.70;99.90;;;;;;5001343;28;20057;-59
2024/04/07 07:22:16;;;;;;;5.07;1.50;;;20.80;99.90;;;;;;4996355;28;20773;-58
2024/04/07 07:24:42;;;;;;;4.07;1.35;;;20.90;99.90;;;;;;4998077;28;20022;-59
2024/04/07 07:27:08;;;;;;;5.68;1.33;;;21.00;99.90;;;;;;5004700;28;20021;-59
2024/04/07 07:29:34;;;;;;;4.20;1.38;;;21.00;99.90;;;;;;5005448;28;20386;-59
2024/04/07 07:31:59;;;;;;;5.75;1.52;;;21.10;99.90;;;;;;5004445;28;20361;-58
2024/04/07 07:34:25;;;;;;;4.80;1.38;;;21.10;99.90;;;;;;5002793;28;20038;-59
2024/04/07 07:36:51;;;;;;;4.57;1.55;;;21.20;99.90;;;;;;5007079;28;20018;-59
2024/04/07 07:39:17;;;;;;;5.63;1.60;;;21.20;99.80;;;;;;5003531;28;20015;-58
2024/04/07 07:41:46;;;;;;;5.18;1.40;;;21.20;99.30;;;;;;4996687;28;20037;-58
2024/04/07 07:44:12;;;;;;;4.85;1.60;;;21.20;99.10;;;;;;4999235;28;20030;-58
2024/04/07 07:46:37;;;;;;;4.10;1.23;;;21.20;98.90;;;;;;5007116;28;20432;-58
2024/04/07 07:49:05;;;;;;;6.85;1.40;;;21.20;98.60;;;;;;5007670;28;20033;-58
2024/04/07 07:51:31;;;;;;;5.05;1.40;;;21.20;98.40;;;;;;5000985;28;20018;-58
2024/04/07 07:53:57;;;;;;;5.00;1.38;;;21.20;98.40;;;;;;5005667;28;20080;-59
2024/04/07 07:56:22;;;;;;;4.60;1.35;;;21.30;98.30;;;;;;4996417;28;20038;-58
2024/04/07 07:58:50;;;;;;;4.05;1.55;;;21.30;98.20;;;;;;5000369;28;20028;-58
2024/04/07 08:01:16;;;;;;;4.03;1.38;;;21.30;98.20;;;;;;4997467;28;20018;-59
2024/04/07 08:03:42;;;;;;;4.53;1.35;;;21.30;98.10;;;;;;5007546;28;20599;-58
2024/04/07 08:06:08;;;;;;;4.30;1.30;;;21.30;98.00;;;;;;5007779;28;20096;-58
2024/04/07 08:08:33;;;;;;;4.78;1.30;;;21.30;97.90;;;;;;5008191;28;20112;-58
2024/04/07 08:10:59;;;;;;;4.95;1.30;;;21.30;97.90;;;;;;4998561;28;20066;-58
2024/04/07 08:13:27;;;;;;;5.28;1.42;;;21.30;97.90;;;;;;4997475;28;20052;-58
2024/04/07 08:15:53;;;;;;;6.32;1.40;;;21.30;97.90;;;;;;4998373;28;20045;-58
2024/04/07 08:18:19;;;;;;;4.30;1.40;;;21.30;98.10;;;;;;5005247;28;20180;-58
2024/04/07 08:20:47;;;;;;;5.05;1.50;;;21.30;98.10;;;;;;4997689;28;20049;-58
2024/04/07 08:23:15;;;;;;;3.25;1.27;;;21.30;98.00;;;;;;5004965;28;20018;-58
2024/04/07 08:25:41;;;;;;;4.07;1.38;;;21.30;97.90;;;;;;5005682;28;20030;-59
2024/04/07 08:28:09;;;;;;;4.70;1.30;;;21.30;97.80;;;;;;5007324;28;20022;-59
2024/04/07 08:30:37;;;;;;;4.20;1.38;;;21.30;97.80;;;;;;5001393;28;20034;-58
2024/04/07 08:33:03;;;;;;;4.97;1.50;;;21.30;97.70;;;;;;4999744;28;20461;-58
2024/04/07 08:35:28;;;;;;;5.65;1.42;;;21.30;97.60;;;;;;5007629;28;20028;-58
2024/04/07 08:37:54;;;;;;;4.25;1.20;;;21.30;97.50;;;;;;5001596;28;20040;-58
2024/04/07 08:40:20;;;;;;;4.55;1.20;;;21.30;97.50;;;;;;5010902;28;20029;-59
2024/04/07 08:42:46;;;;;;;4.20;1.30;;;21.30;97.40;;;;;;5005652;28;20030;-59
2024/04/07 08:45:12;;;;;;;3.65;1.10;;;21.30;97.30;;;;;;5003701;28;20036;-59
2024/04/07 08:47:40;;;;;;;3.95;1.40;;;21.30;97.30;;;;;;5008576;28;20029;-58
2024/04/07 08:50:07;;;;;;;3.83;1.30;;;21.30;97.30;;;;;;5000719;28;20026;-58
2024/04/07 08:52:33;;;;;;;5.70;1.30;;;21.30;97.30;;;;;;5001933;28;20042;-58
2024/04/07 08:54:59;;;;;;;4.13;1.20;;;21.30;97.30;;;;;;5001018;28;20543;-58
2024/04/07 08:57:25;;;;;;;4.55;1.35;;;21.30;97.40;;;;;;5001938;28;20029;-59
2024/04/07 08:59:52;;;;;;;4.35;1.20;;;21.40;97.50;;;;;;4999026;28;20030;-59
2024/04/07 09:02:18;;;;;;;3.80;1.13;;;21.40;97.20;;;;;;5008630;28;20029;-59
2024/04/07 09:04:44;;;;;;;5.05;1.30;;;21.40;97.50;;;;;;5003034;28;20069;-60
2024/04/07 09:07:13;;;;;;;4.68;1.50;;;21.40;97.60;;;;;;5014276;28;20416;-60
2024/04/07 09:09:42;;;;;;;7.13;1.20;;;21.40;97.50;;;;;;5015012;28;20108;-60
2024/04/07 09:12:08;;;;;;;6.03;1.48;;;21.40;97.20;;;;;;5004018;28;20089;-60
2024/04/07 09:14:38;;;;;;;4.15;1.20;;;21.40;96.70;;;;;;5011530;28;20049;-60
2024/04/07 09:17:06;;;;;;;3.55;1.15;;;21.40;96.20;;;;;;5006762;28;20030;-60
2024/04/07 09:19:33;;;;;;;5.80;1.20;;;21.40;95.90;;;;;;5008450;28;20085;-60
2024/04/07 09:21:58;;;;;;;5.00;1.50;;;21.40;95.40;;;;;;5007084;28;20022;-60
2024/04/07 09:24:30;;;;;;;5.20;1.20;;;21.40;93.90;;;;;;5003828;28;20026;-60
2024/04/07 09:27:00;;;;;;;4.22;1.17;;;21.40;93.20;;;;;;5005376;28;20034;-60
2024/04/07 09:29:29;;;;;;;5.13;1.20;;;21.40;92.00;;;;;;5006778;28;20478;-60
2024/04/07 09:31:56;;;;;;;4.60;1.27;;;21.40;90.60;;;;;;5006900;28;20113;-60
2024/04/07 09:34:22;;;;;;;4.80;1.15;;;21.50;90.50;;;;;;5000854;28;20033;-60
2024/04/07 09:36:48;;;;;;;5.55;1.30;;;21.40;90.40;;;;;;5006591;28;20433;-60
2024/04/07 09:39:14;;;;;;;5.90;1.10;;;21.40;90.00;;;;;;5006076;28;20018;-60
2024/04/07 09:41:42;;;;;;;4.20;1.10;;;21.50;90.20;;;;;;5007102;28;20381;-60
2024/04/07 09:44:09;;;;;;;3.70;1.17;;;21.40;90.00;;;;;;5005314;28;20058;-60
2024/04/07 09:46:37;;;;;;;4.72;1.13;;;21.50;89.90;;;;;;5011835;28;20053;-60
2024/04/07 09:49:07;;;;;;;5.32;1.70;;;21.50;88.10;;;;;;5014944;28;20065;-61
2024/04/07 09:51:33;;;;;;;;;;;21.50;86.10;;;;;;5007638;28;20037;-61
2024/04/07 09:54:05;;;;;;;4.72;0.98;;;21.40;85.10;;;;;;5002379;28;19910;-60
2024/04/07 09:56:34;;;;;;;4.38;1.20;;;21.40;85.50;;;;;;5002998;28;20473;-60
2024/04/07 09:59:00;;;;;;;6.18;1.15;;;21.40;84.00;;;;;;5006875;28;20030;-61
2024/04/07 10:01:26;;;;;;;4.40;1.48;;;21.40;84.60;;;;;;5006327;28;20552;-61
2024/04/07 10:03:55;;;;;;;5.57;1.17;;;21.40;84.70;;;;;;4997731;28;20522;-60
2024/04/07 10:06:21;;;;;;;4.97;1.00;;;21.40;84.10;;;;;;5000863;28;20040;-60
2024/04/07 10:08:48;;;;;;;5.55;1.20;;;21.40;84.20;;;;;;5002705;28;20026;-61
2024/04/07 10:11:18;;;;;;;3.65;1.00;;;21.40;83.90;;;;;;5002058;28;20458;-60
2024/04/07 10:13:45;;;;;;;3.95;1.10;;;21.40;83.40;;;;;;5003644;28;20084;-61
2024/04/07 10:16:15;;;;;;;2.83;0.80;;;21.40;83.50;;;;;;5006354;28;20026;-60
2024/04/07 10:18:42;;;;;;;2.88;0.98;;;21.40;83.30;;;;;;5008067;28;20112;-60
2024/04/07 10:21:09;;;;;;;3.17;0.90;;;21.40;82.30;;;;;;5003588;28;20065;-60
2024/04/07 10:23:36;;;;;;;5.60;0.93;;;21.40;81.00;;;;;;5002744;28;20421;-60
2024/04/07 10:26:03;;;;;;;3.58;1.00;;;21.40;81.10;;;;;;5004132;28;20033;-61
2024/04/07 10:28:44;;;;;;;4.47;0.93;;;21.40;81.00;;;;;;5005186;28;20586;-60
2024/04/07 10:31:09;;;;;;;3.85;1.02;;;21.40;81.00;;;;;;4999944;28;20042;-60
2024/04/07 10:33:36;;;;;;;4.63;1.10;;;21.40;81.00;;;;;;4998452;28;20371;-59
2024/04/07 10:36:02;;;;;;;6.25;1.30;;;21.40;80.90;;;;;;5000505;28;20045;-60
2024/04/07 10:38:45;;;;;;;7.30;1.10;;;21.40;79.40;;;;;;5003286;28;20025;-60
2024/04/07 10:41:31;;;;;;;7.72;1.30;;;21.40;79.00;;;;;;5001873;28;20049;-60
2024/04/07 10:43:58;;;;;;;5.30;1.20;;;21.40;78.50;;;;;;5005424;28;20077;-60
2024/04/07 10:46:25;;;;;;;4.75;1.10;;;21.40;78.50;;;;;;5004862;28;20030;-60
2024/04/07 10:48:53;;;;;;;4.53;1.02;;;21.40;77.80;;;;;;5006889;28;20030;-59
2024/04/07 10:51:22;;;;;;;4.63;1.08;;;21.40;77.50;;;;;;5005765;28;20616;-60
2024/04/07 10:54:07;;;;;;;3.95;1.15;;;21.40;77.90;;;;;;5008446;28;20030;-60
2024/04/07 10:56:33;;;;;;;5.30;1.10;;;21.30;78.00;;;;;;5005019;28;20504;-60
2024/04/07 10:59:00;;;;;;;6.63;1.10;;;21.30;77.80;;;;;;5006996;28;20030;-60
2024/04/07 11:01:30;;;;;;;3.53;0.93;;;21.40;78.00;;;;;;5000388;28;20053;-60
2024/04/07 11:03:59;;;;;;;5.47;1.17;;;21.40;77.50;;;;;;4999474;28;20097;-60
2024/04/07 11:06:26;;;;;;;5.28;1.25;;;21.30;77.80;;;;;;5003335;28;20122;-60
2024/04/07 11:08:52;;;;;;;5.75;1.13;;;21.30;78.30;;;;;;5004280;28;20025;-62
2024/04/07 11:11:22;;;;;;;5.55;1.10;;;21.40;78.40;;;;;;5008014;28;20101;-60
2024/04/07 11:13:51;;;;;;;;;;;21.40;78.50;;;;;;5001695;28;20025;-60
2024/04/07 11:16:17;;;;;;;6.88;1.17;;;21.40;78.90;;;;;;5010063;28;20507;-60
2024/04/07 11:18:43;;;;;;;4.47;1.10;;;21.40;78.70;;;;;;5004754;28;20045;-61
2024/04/07 11:21:10;;;;;;;3.78;1.20;;;21.40;78.80;;;;;;5005807;28;20018;-61
2024/04/07 11:23:38;;;;;;;7.95;1.10;;;21.40;78.90;;;;;;4997413;28;20518;-58
2024/04/07 11:26:04;;;;;;;4.80;1.00;;;21.40;78.30;;;;;;5000425;28;20026;-59
2024/04/07 11:28:29;;;;;;;4.22;0.95;;;21.40;78.60;;;;;;4998808;28;20526;-59
2024/04/07 11:30:56;;;;;;;5.35;1.00;;;21.40;78.80;;;;;;5000291;28;20390;-59
2024/04/07 11:33:23;;;;;;;4.43;1.00;;;21.40;79.00;;;;;;4999366;28;20136;-59
2024/04/07 11:35:49;;;;;;;3.50;1.05;;;21.40;79.10;;;;;;5001732;28;20025;-59
2024/04/07 11:38:15;;;;;;;4.13;1.00;;;21.50;79.50;;;;;;4996725;28;20479;-58
2024/04/07 11:40:41;;;;;;;3.78;0.98;;;21.40;79.50;;;;;;4998170;28;20105;-59
2024/04/07 11:43:09;;;;;;;5.53;0.93;;;21.50;79.70;;;;;;4995310;28;20155;-59
2024/04/07 11:45:38;;;;;;;2.95;0.98;;;21.50;79.90;;;;;;4999112;28;20488;-59
2024/04/07 11:48:10;;;;;;;5.13;1.20;;;21.50;80.00;;;;;;5003730;28;20026;-59
2024/04/07 11:50:36;;;;;;;3.65;1.02;;;21.50;80.30;;;;;;4999008;28;20557;-59
2024/04/07 11:53:01;;;;;;;4.78;0.93;;;21.50;80.40;;;;;;4998699;28;20040;-59
2024/04/07 11:55:28;;;;;;;4.10;1.20;;;21.50;80.30;;;;;;5000459;28;20038;-58
2024/04/07 11:57:54;;;;;;;2.20;0.90;;;21.60;80.30;;;;;;5005501;28;20049;-59
2024/04/07 12:00:23;;;;;;;4.97;1.13;;;21.60;80.30;;;;;;5004013;28;20029;-59
2024/04/07 12:02:48;;;;;;;4.28;1.08;;;21.60;80.40;;;;;;5006876;28;20374;-59
2024/04/07 12:05:15;;;;;;;3.20;1.02;;;21.60;80.40;;;;;;5005061;28;20034;-58
2024/04/07 12:07:40;;;;;;;4.72;1.30;;;21.60;80.40;;;;;;5002636;28;20030;-59
2024/04/07 12:10:06;;;;;;;3.08;1.02;;;21.60;80.60;;;;;;5002019;28;20109;-59
2024/04/07 12:12:32;;;;;;;3.70;1.00;;;21.60;80.70;;;;;;4997638;28;20044;-59
2024/04/07 12:14:59;;;;;;;3.10;1.00;;;21.60;80.70;;;;;;5000136;28;20026;-59
2024/04/07 12:17:25;;;;;;;3.78;1.00;;;21.70;81.10;;;;;;4999240;28;20468;-59
2024/04/07 12:19:51;;;;;;;2.88;0.85;;;21.70;81.20;;;;;;5000480;28;20031;-59
2024/04/07 12:22:18;;;;;;;2.78;0.90;;;21.70;81.30;;;;;;5000319;28;20429;-59
2024/04/07 12:24:45;;;;;;;2.75;0.90;;;21.70;81.40;;;;;;5003810;28;20042;-59
2024/04/07 12:27:11;;;;;;;5.00;1.10;;;21.70;81.60;;;;;;5001125;28;20371;-59
2024/04/07 12:29:39;;;;;;;3.60;1.00;;;21.70;81.70;;;;;;4999401;28;20058;-59
2024/04/07 12:32:05;;;;;;;6.10;1.17;;;21.70;81.90;;;;;;5004331;28;20037;-59
2024/04/07 12:34:31;;;;;;;1.70;0.80;;;21.80;82.10;;;;;;5002227;28;20026;-59
2024/04/07 12:36:56;;;;;;;4.70;1.10;;;21.80;82.30;;;;;;4997750;28;20050;-59
2024/04/07 12:39:22;;;;;;;4.90;1.10;;;21.80;82.20;;;;;;5002904;28;20021;-58
2024/04/07 12:41:49;;;;;;;5.65;1.20;;;21.80;82.40;;;;;;4997631;28;20050;-59
2024/04/07 12:44:18;;;;;;;5.28;1.30;;;21.80;82.20;;;;;;5002911;28;20596;-59
2024/04/07 12:46:44;;;;;;;4.50;1.10;;;21.90;82.50;;;;;;5008266;28;20031;-58
2024/04/07 12:49:11;;;;;;;4.28;1.10;;;21.90;82.70;;;;;;5004822;28;20045;-59